Milltown, Kentucky
Current Conditions -  °F | °C
As of 7:15 AM on Monday 22 Dec 2014 (Local Time) from KGLW Reporting Station
Overcast Overcast  
Wind Chill: 44°   Ceiling: 2600
Heat Index: 47°   Visibility: 10mi
Dew Point: 41°   Wind: 6mph
Humidity: 79%   Direction: 120°ESE
Pressure: 29.96"   Gusts: NA
Location:  37.11°N, 85.46°W
Report Text: KGLW 221315Z AUTO 12005KT 10SM SCT020 OVC026 08/05 A2996 RMK AO2 T00840050
Loading
Personal Weather Stations






























Interactive Weather Map New forecast layout! Learn more

10-Day Weather Forecast

Advertisements
Track Severe Weather on mobile